Time;durP1;ratioP1;P1;durP2;ratioP2;P2;SDS_P1;SDS_P2;PMS_P1;PMS_P2;Temp;Humidity;BMP_temperature;BMP_pressure;BME280_temperature;BME280_humidity;BME280_pressure;Samples;Min_cycle;Max_cycle;Signal;HPM_P1;HPM_P2
2023/12/03 00:00:22;;;;;;;13.50;10.02;;;;;;;1.04;65.13;99304.50;4468975;32;33478;-79
2023/12/03 00:02:52;;;;;;;11.00;9.00;;;;;;;0.87;65.44;99332.13;4482984;32;34561;-79
2023/12/03 00:05:21;;;;;;;12.60;7.37;;;;;;;1.07;64.69;99331.34;4482850;31;32970;-79
2023/12/03 00:07:50;;;;;;;13.65;9.05;;;;;;;1.02;64.46;99325.44;4482884;32;33770;-79
2023/12/03 00:10:19;;;;;;;11.48;8.68;;;;;;;0.97;65.15;99345.63;4483159;32;34545;-79
2023/12/03 00:12:49;;;;;;;11.95;8.27;;;;;;;0.85;65.30;99353.94;4484261;32;34003;-79
2023/12/03 00:15:18;;;;;;;11.73;7.68;;;;;;;0.98;64.93;99356.00;4488223;32;33137;-79
2023/12/03 00:17:49;;;;;;;13.10;8.73;;;;;;;0.89;65.03;99368.56;4487922;32;33834;-79
2023/12/03 00:20:19;;;;;;;11.52;7.55;;;;;;;0.88;65.22;99379.91;4487881;32;34108;-79
2023/12/03 00:22:48;;;;;;;14.60;8.88;;;;;;;1.01;64.79;99375.06;4487944;32;35149;-79
2023/12/03 00:25:17;;;;;;;12.37;8.38;;;;;;;1.01;64.85;99375.91;4487545;32;34171;-79
2023/12/03 00:27:46;;;;;;;12.15;8.15;;;;;;;1.04;64.55;99385.38;4487698;32;33833;-79
2023/12/03 00:30:16;;;;;;;10.65;7.85;;;;;;;1.18;64.14;99396.12;4488072;32;34114;-79
2023/12/03 00:32:45;;;;;;;12.20;9.35;;;;;;;1.06;64.45;99417.47;4487534;32;34345;-79
2023/12/03 00:35:19;;;;;;;10.18;6.82;;;;;;;0.90;64.53;99428.47;4487478;32;33449;-79
2023/12/03 00:37:49;;;;;;;13.75;8.82;;;;;;;1.01;64.40;99430.69;4487702;32;33755;-79
2023/12/03 00:40:18;;;;;;;12.13;7.68;;;;;;;0.89;64.57;99444.19;4487469;32;33897;-79
2023/12/03 00:42:49;;;;;;;11.30;8.18;;;;;;;0.76;64.54;99435.97;4487403;32;33740;-79
2023/12/03 00:45:22;;;;;;;11.43;8.00;;;;;;;1.09;64.19;99431.25;4487619;31;34839;-79
2023/12/03 00:47:51;;;;;;;10.65;7.32;;;;;;;1.03;64.06;99438.44;4487289;32;34444;-79
2023/12/03 00:50:22;;;;;;;11.95;8.40;;;;;;;0.97;64.17;99448.22;4487656;32;34184;-79
2023/12/03 00:52:52;;;;;;;11.43;8.63;;;;;;;0.82;64.62;99464.44;4487839;32;34495;-79
2023/12/03 00:55:21;;;;;;;12.85;8.45;;;;;;;0.94;64.11;99484.00;4487647;31;33839;-78
2023/12/03 00:57:53;;;;;;;10.73;7.47;;;;;;;0.69;65.05;99486.66;4487264;32;35290;-79
2023/12/03 01:00:22;;;;;;;11.43;7.70;;;;;;;1.06;64.10;99496.59;4487712;32;33941;-79
2023/12/03 01:02:51;;;;;;;9.93;6.75;;;;;;;1.01;63.78;99498.53;4487163;32;33525;-79
2023/12/03 01:05:22;;;;;;;10.52;8.43;;;;;;;0.78;64.08;99512.38;4487358;31;32907;-79
2023/12/03 01:07:51;;;;;;;13.93;9.10;;;;;;;1.10;63.58;99502.56;4487166;32;34451;-79
2023/12/03 01:10:20;;;;;;;11.20;7.12;;;;;;;1.07;63.55;99511.38;4487373;32;34261;-79
2023/12/03 01:12:49;;;;;;;9.85;7.65;;;;;;;0.93;63.77;99514.44;4487270;32;33875;-78
2023/12/03 01:15:21;;;;;;;12.52;7.55;;;;;;;1.14;63.25;99523.25;4487578;32;34392;-79
2023/12/03 01:17:49;;;;;;;12.18;8.73;;;;;;;1.10;63.27;99526.03;4487268;32;34565;-79
2023/12/03 01:20:19;;;;;;;13.82;8.20;;;;;;;1.10;63.67;99518.19;4487258;32;33943;-79
2023/12/03 01:22:49;;;;;;;8.60;7.07;;;;;;;1.15;62.91;99529.34;4487159;32;33570;-79
2023/12/03 01:25:20;;;;;;;11.23;7.65;;;;;;;1.03;63.59;99530.66;4484057;32;34675;-78
2023/12/03 01:27:49;;;;;;;10.35;7.43;;;;;;;1.06;63.28;99532.28;4484089;32;33818;-78
2023/12/03 01:30:18;;;;;;;11.77;8.15;;;;;;;0.97;63.59;99529.09;4484520;32;33893;-79
2023/12/03 01:32:47;;;;;;;10.27;8.75;;;;;;;0.95;63.91;99530.03;4483921;32;35064;-79
2023/12/03 01:35:20;;;;;;;13.90;8.93;;;;;;;0.95;63.87;99519.59;4483867;32;33368;-79
2023/12/03 01:37:51;;;;;;;11.60;7.87;;;;;;;0.97;63.91;99529.09;4484100;32;34162;-79
2023/12/03 01:40:21;;;;;;;11.23;8.20;;;;;;;0.77;64.42;99528.09;4483929;32;34818;-79
2023/12/03 01:42:50;;;;;;;14.65;9.60;;;;;;;0.94;64.25;99530.94;4483981;32;33803;-79
2023/12/03 01:45:23;;;;;;;13.18;8.20;;;;;;;0.98;63.87;99527.31;4484117;31;33587;-78
2023/12/03 01:47:53;;;;;;;13.95;8.93;;;;;;;0.80;64.36;99551.47;4483763;32;35128;-78
2023/12/03 01:50:24;;;;;;;14.15;9.25;;;;;;;0.64;64.85;99548.53;4483842;32;34064;-78
2023/12/03 01:52:55;;;;;;;14.27;9.45;;;;;;;0.53;64.92;99550.66;4483908;32;34627;-79
2023/12/03 01:55:26;;;;;;;13.70;9.48;;;;;;;0.77;64.75;99556.78;4483612;32;34012;-79
2023/12/03 01:57:56;;;;;;;15.30;9.98;;;;;;;0.58;64.88;99570.44;4483769;32;35191;-79
2023/12/03 02:00:25;;;;;;;16.77;9.52;;;;;;;0.65;64.88;99561.53;4484242;32;34218;-79
2023/12/03 02:02:56;;;;;;;14.85;9.65;;;;;;;0.53;64.98;99566.31;4483697;32;33947;-79
2023/12/03 02:05:30;;;;;;;10.82;7.97;;;;;;;0.34;64.93;99553.03;4483516;32;34475;-78
2023/12/03 02:08:01;;;;;;;12.65;10.02;;;;;;;0.66;64.54;99572.78;4483771;32;34487;-79
2023/12/03 02:10:30;;;;;;;13.57;9.32;;;;;;;0.72;63.96;99576.06;4483570;32;34901;-79
2023/12/03 02:12:59;;;;;;;15.05;9.77;;;;;;;0.45;64.99;99563.94;4483783;32;33823;-79
2023/12/03 02:15:28;;;;;;;12.70;8.73;;;;;;;0.72;64.21;99583.88;4484181;32;34927;-79
2023/12/03 02:17:58;;;;;;;13.13;8.68;;;;;;;0.57;64.36;99584.41;4483730;32;33603;-78
2023/12/03 02:20:27;;;;;;;11.20;8.35;;;;;;;0.49;64.42;99597.69;4483695;32;33826;-78
2023/12/03 02:23:01;;;;;;;11.77;8.75;;;;;;;0.53;64.04;99606.25;4483561;32;33582;-78
2023/12/03 02:25:31;;;;;;;14.95;10.05;;;;;;;0.53;64.11;99608.88;4483278;32;33356;-78
2023/12/03 02:28:00;;;;;;;12.37;9.23;;;;;;;0.49;64.08;99626.34;4483852;32;34808;-78
2023/12/03 02:30:28;;;;;;;13.20;9.65;;;;;;;0.49;64.57;99634.19;4484510;32;33695;-78
2023/12/03 02:32:58;;;;;;;12.65;9.20;;;;;;;0.45;64.59;99639.53;4483858;32;35353;-79
2023/12/03 02:35:27;;;;;;;11.27;8.93;;;;;;;0.44;64.46;99656.94;4483008;31;33457;-79
2023/12/03 02:37:56;;;;;;;13.30;8.80;;;;;;;0.49;64.19;99638.53;4482952;32;33763;-78
2023/12/03 02:40:27;;;;;;;12.43;9.20;;;;;;;0.43;64.55;99628.28;4483616;32;34030;-78
2023/12/03 02:42:56;;;;;;;13.32;9.20;;;;;;;0.31;64.54;99634.75;4483469;32;34108;-78
2023/12/03 02:45:25;;;;;;;12.25;8.25;;;;;;;0.40;64.64;99633.63;4483789;32;33982;-78
2023/12/03 02:47:54;;;;;;;11.93;8.60;;;;;;;0.30;64.66;99648.69;4483444;32;34337;-79
2023/12/03 02:50:25;;;;;;;12.70;9.05;;;;;;;0.44;64.22;99669.97;4483588;32;34683;-79
2023/12/03 02:52:54;;;;;;;12.32;7.93;;;;;;;0.41;64.28;99675.28;4469179;32;33645;-79
2023/12/03 02:55:24;;;;;;;11.15;8.68;;;;;;;0.55;64.04;99690.47;4483559;32;33475;-79
2023/12/03 02:57:55;;;;;;;11.75;9.10;;;;;;;0.67;63.79;99699.66;4483673;32;34841;-79
2023/12/03 03:00:25;;;;;;;11.95;8.75;;;;;;;0.39;64.30;99710.09;4483896;32;33826;-79
2023/12/03 03:02:55;;;;;;;14.32;10.23;;;;;;;0.42;63.90;99715.22;4483633;32;34975;-79
2023/12/03 03:05:24;;;;;;;12.95;9.93;;;;;;;0.43;64.22;99717.75;4483358;32;33553;-79
2023/12/03 03:07:53;;;;;;;15.23;10.07;;;;;;;0.36;64.32;99707.59;4483511;32;34238;-79
2023/12/03 03:10:22;;;;;;;12.35;8.90;;;;;;;0.39;64.06;99708.34;4483368;32;33166;-79
2023/12/03 03:12:51;;;;;;;10.77;8.38;;;;;;;0.21;63.97;99738.44;4483313;32;34810;-79
2023/12/03 03:15:28;;;;;;;10.38;8.32;;;;;;;0.37;63.86;99743.19;4483479;32;34573;-79
2023/12/03 03:17:57;;;;;;;10.32;8.02;;;;;;;0.57;63.54;99759.06;4483621;32;33905;-79
2023/12/03 03:20:26;;;;;;;11.35;9.45;;;;;;;0.53;63.30;99770.50;4483552;32;33935;-79
2023/12/03 03:22:55;;;;;;;11.63;8.57;;;;;;;0.32;63.24;99776.31;4483364;32;33597;-79
2023/12/03 03:25:26;;;;;;;10.98;8.43;;;;;;;0.49;63.29;99782.75;4483069;32;33707;-79
2023/12/03 03:28:00;;;;;;;12.13;8.25;;;;;;;0.17;63.73;99782.88;4483289;32;34062;-79
2023/12/03 03:30:30;;;;;;;10.63;8.38;;;;;;;0.30;63.83;99793.78;4483708;32;33930;-79
2023/12/03 03:32:59;;;;;;;12.85;9.32;;;;;;;0.46;62.73;99795.03;4483438;32;33534;-79
2023/12/03 03:35:28;;;;;;;10.60;7.85;;;;;;;0.23;63.48;99803.50;4483261;31;33520;-79
2023/12/03 03:37:57;;;;;;;10.90;7.85;;;;;;;0.12;63.76;99811.66;4483160;32;34498;-79
2023/12/03 03:40:29;;;;;;;10.30;7.97;;;;;;;0.10;63.63;99820.41;4483354;32;35032;-79
2023/12/03 03:42:58;;;;;;;15.40;7.65;;;;;;;0.17;63.15;99828.00;4483167;32;33871;-79
2023/12/03 03:45:30;;;;;;;11.77;7.30;;;;;;;0.15;63.93;99827.19;4483812;32;33069;-79
2023/12/03 03:47:59;;;;;;;11.05;8.10;;;;;;;0.19;62.96;99833.16;4482910;32;34179;-79
2023/12/03 03:50:29;;;;;;;12.85;7.78;;;;;;;0.33;62.66;99840.59;4483335;32;34416;-79
2023/12/03 03:52:58;;;;;;;10.15;7.43;;;;;;;0.39;62.16;99838.66;4469106;32;34839;-79
2023/12/03 03:55:27;;;;;;;8.88;6.60;;;;;;;0.40;62.10;99837.78;4483378;32;33400;-79
2023/12/03 03:57:57;;;;;;;10.55;6.78;;;;;;;0.10;62.69;99847.31;4483399;32;34060;-79
2023/12/03 04:00:26;;;;;;;12.07;7.35;;;;;;;0.37;62.12;99852.66;4483818;32;34142;-79
2023/12/03 04:02:58;;;;;;;11.00;7.97;;;;;;;0.19;62.57;99861.81;4483481;32;34382;-79
2023/12/03 04:05:28;;;;;;;8.13;6.60;;;;;;;0.09;62.54;99874.25;4483010;32;33588;-79
2023/12/03 04:07:57;;;;;;;10.05;7.40;;;;;;;0.30;61.88;99870.19;4483866;32;33759;-79
2023/12/03 04:10:26;;;;;;;10.20;7.25;;;;;;;0.27;61.76;99866.81;4483510;32;34278;-79
2023/12/03 04:12:56;;;;;;;12.10;7.47;;;;;;;0.11;62.27;99882.88;4483191;32;34410;-79
2023/12/03 04:15:28;;;;;;;10.82;8.68;;;;;;;0.15;61.93;99881.91;4483584;32;33249;-79
2023/12/03 04:17:58;;;;;;;10.60;7.78;;;;;;;0.23;62.08;99894.72;4483332;32;34294;-79
2023/12/03 04:20:28;;;;;;;11.18;7.65;;;;;;;0.32;61.54;99880.56;4483145;32;34674;-79
2023/12/03 04:22:58;;;;;;;11.65;7.60;;;;;;;-0.21;62.62;99896.75;4483156;32;33733;-79
2023/12/03 04:25:30;;;;;;;9.88;8.05;;;;;;;-0.03;62.65;99891.06;4482884;32;34201;-79
2023/12/03 04:27:59;;;;;;;13.77;7.72;;;;;;;-0.07;62.89;99897.25;4483381;32;34037;-79
2023/12/03 04:30:28;;;;;;;9.30;7.18;;;;;;;0.14;62.08;99908.00;4483767;32;35001;-79
2023/12/03 04:32:59;;;;;;;11.43;7.80;;;;;;;-0.01;62.43;99930.09;4483985;32;34611;-79
2023/12/03 04:35:30;;;;;;;12.18;8.32;;;;;;;0.04;62.33;99917.81;4483324;31;34828;-79
2023/12/03 04:37:59;;;;;;;11.50;8.80;;;;;;;-0.11;62.68;99926.03;4483439;32;33913;-79
2023/12/03 04:40:28;;;;;;;12.45;8.73;;;;;;;-0.07;62.52;99912.88;4483545;32;34415;-79
2023/12/03 04:42:57;;;;;;;12.93;9.15;;;;;;;-0.16;62.49;99918.34;4483497;32;33640;-79
2023/12/03 04:45:26;;;;;;;10.70;7.60;;;;;;;-0.02;62.30;99915.38;4483706;32;33205;-79
2023/12/03 04:48:00;;;;;;;12.40;8.93;;;;;;;-0.03;62.32;99917.13;4483634;32;33855;-79
2023/12/03 04:50:29;;;;;;;11.90;8.17;;;;;;;-0.02;62.25;99933.59;4483568;32;33998;-79
2023/12/03 04:53:00;;;;;;;13.80;8.70;;;;;;;-0.33;62.78;99915.28;4483345;32;34260;-79
2023/12/03 04:55:31;;;;;;;10.70;7.95;;;;;;;-0.22;62.59;99925.44;4483317;31;33175;-79
2023/12/03 04:58:00;;;;;;;12.60;8.80;;;;;;;-0.38;62.28;99928.41;4483213;32;34118;-79
2023/12/03 05:00:30;;;;;;;12.43;7.95;;;;;;;-0.56;62.85;99926.22;4484902;32;34143;-79
2023/12/03 05:03:00;;;;;;;11.63;8.45;;;;;;;-0.56;62.99;99937.50;4470782;32;33861;-79
2023/12/03 05:05:31;;;;;;;16.52;10.00;;;;;;;-0.61;62.88;99933.31;4485079;32;33303;-79
2023/12/03 05:08:00;;;;;;;13.27;9.80;;;;;;;-0.55;62.87;99954.84;4485279;32;34354;-79
2023/12/03 05:10:30;;;;;;;12.07;9.40;;;;;;;-0.51;62.67;99960.84;4485463;32;34055;-79
2023/12/03 05:12:59;;;;;;;14.38;9.10;;;;;;;-0.46;62.33;99965.94;4470866;32;32645;-79
2023/12/03 05:15:32;;;;;;;12.70;8.70;;;;;;;-0.50;62.37;99970.34;4485510;32;34096;-79
2023/12/03 05:18:03;;;;;;;11.68;8.75;;;;;;;-0.46;62.12;99976.34;4485427;32;33864;-79
2023/12/03 05:20:33;;;;;;;13.77;9.25;;;;;;;-0.35;61.40;99976.97;4485102;32;34794;-79
2023/12/03 05:23:04;;;;;;;12.85;8.85;;;;;;;-0.62;61.98;99978.44;4485328;32;34318;-79
2023/12/03 05:25:34;;;;;;;13.90;8.85;;;;;;;-0.37;61.62;99983.94;4485464;31;33437;-79
2023/12/03 05:28:03;;;;;;;13.02;7.97;;;;;;;-0.37;61.41;99986.53;4485333;32;34197;-79
2023/12/03 05:30:33;;;;;;;12.25;8.38;;;;;;;-0.42;61.35;99984.03;4486066;32;33947;-79
2023/12/03 05:33:05;;;;;;;14.80;8.88;;;;;;;-0.21;61.03;99998.28;4485567;32;49402;-79
2023/12/03 05:35:35;;;;;;;10.98;8.30;;;;;;;-0.38;60.66;99996.09;4479001;32;33201;-79
2023/12/03 05:38:04;;;;;;;17.17;7.62;;;;;;;-0.52;61.23;100005.94;4485310;32;34556;-79
2023/12/03 05:40:37;;;;;;;12.45;7.95;;;;;;;-0.49;60.92;100005.88;4485456;32;34918;-79
2023/12/03 05:43:06;;;;;;;11.75;7.62;;;;;;;-0.55;60.91;100012.09;4485133;32;33778;-79
2023/12/03 05:45:35;;;;;;;13.07;8.55;;;;;;;-0.44;60.93;100024.00;4486030;32;33267;-79
2023/12/03 05:48:06;;;;;;;11.12;7.85;;;;;;;-0.51;60.70;100029.34;4485710;32;49670;-79
2023/12/03 05:50:37;;;;;;;9.43;6.93;;;;;;;-0.53;60.61;100033.72;4485527;32;34820;-79
2023/12/03 05:53:07;;;;;;;11.43;8.38;;;;;;;-0.65;60.93;100047.00;4471546;32;32380;-79
2023/12/03 05:55:37;;;;;;;15.70;9.98;;;;;;;-0.51;60.85;100044.13;4485299;32;34293;-79
2023/12/03 05:58:08;;;;;;;12.30;8.77;;;;;;;-0.40;60.47;100036.91;4486421;32;34989;-79
2023/12/03 06:00:38;;;;;;;10.45;7.43;;;;;;;-0.34;60.49;100049.81;4486203;32;34131;-78
2023/12/03 06:03:09;;;;;;;11.73;7.45;;;;;;;-0.51;60.65;100044.13;4486552;32;33670;-79
2023/12/03 06:05:40;;;;;;;13.00;9.18;;;;;;;-0.41;60.32;100056.03;4485898;32;34295;-79
2023/12/03 06:08:10;;;;;;;12.43;9.13;;;;;;;-0.69;61.17;100047.13;4486320;32;34933;-79
2023/12/03 06:10:39;;;;;;;12.18;8.57;;;;;;;-0.80;61.18;100063.78;4485972;32;34385;-79
2023/12/03 06:13:08;;;;;;;12.40;8.63;;;;;;;-0.68;60.79;100059.22;4486067;32;33645;-79
2023/12/03 06:15:37;;;;;;;11.27;8.48;;;;;;;-0.58;60.56;100068.56;4486120;32;33558;-79
2023/12/03 06:18:06;;;;;;;13.98;8.85;;;;;;;-0.54;60.39;100076.28;4485911;32;48780;-80
2023/12/03 06:20:39;;;;;;;14.40;8.93;;;;;;;-0.52;60.37;100066.66;4485589;32;33578;-79
2023/12/03 06:23:08;;;;;;;13.55;9.02;;;;;;;-0.51;60.17;100065.81;4485580;32;33987;-79
2023/12/03 06:25:37;;;;;;;12.13;8.00;;;;;;;-0.63;60.34;100078.22;4479206;31;33654;-78
2023/12/03 06:28:06;;;;;;;10.48;7.45;;;;;;;-0.53;60.24;100088.37;4470212;32;34628;-79
2023/12/03 06:30:37;;;;;;;13.18;9.10;;;;;;;-0.72;60.06;100081.00;4470922;32;34069;-79
2023/12/03 06:33:07;;;;;;;12.23;7.72;;;;;;;-0.72;60.28;100092.25;4486038;32;48550;-79
2023/12/03 06:35:39;;;;;;;13.65;9.25;;;;;;;-0.81;60.14;100090.69;4479283;31;33548;-79
2023/12/03 06:38:08;;;;;;;10.23;6.68;;;;;;;-0.76;60.18;100094.06;4485863;32;35277;-79
2023/12/03 06:40:38;;;;;;;11.15;7.70;;;;;;;-0.66;59.72;100099.94;4485595;31;34443;-79
2023/12/03 06:43:07;;;;;;;11.85;6.55;;;;;;;-0.58;59.80;100113.66;4485707;31;33977;-79
2023/12/03 06:45:39;;;;;;;12.30;9.10;;;;;;;-0.64;59.64;100102.50;4485589;32;34352;-79
2023/12/03 06:48:08;;;;;;;;;;;;;;;-0.62;60.08;100116.38;4470256;32;49726;-79
2023/12/03 06:50:39;;;;;;;10.55;7.82;;;;;;;-0.39;59.53;100119.34;4470195;32;34323;-79
2023/12/03 06:53:13;;;;;;;11.77;8.43;;;;;;;-0.41;59.48;100121.13;4469719;32;33700;-79
2023/12/03 06:55:42;;;;;;;10.45;7.12;;;;;;;-0.37;59.14;100125.37;4469799;32;33379;-79
2023/12/03 06:58:12;;;;;;;13.35;8.68;;;;;;;-0.39;59.25;100126.31;4469712;32;34743;-79
2023/12/03 07:00:43;;;;;;;13.55;7.70;;;;;;;-0.48;59.67;100126.47;4469615;32;34314;-78
2023/12/03 07:03:12;;;;;;;13.43;7.30;;;;;;;-0.59;59.59;100132.78;4470297;32;34060;-79
2023/12/03 07:05:42;;;;;;;11.50;7.68;;;;;;;-0.62;59.84;100137.19;4469574;32;33273;-79
2023/12/03 07:08:12;;;;;;;12.43;8.82;;;;;;;-0.71;59.91;100143.44;4469957;32;34286;-79
2023/12/03 07:10:41;;;;;;;11.12;8.95;;;;;;;-0.55;59.90;100154.41;4469790;32;33857;-79
2023/12/03 07:13:10;;;;;;;10.45;7.65;;;;;;;-0.27;59.19;100155.53;4470011;32;34122;-79
2023/12/03 07:15:41;;;;;;;13.27;8.93;;;;;;;-0.29;59.05;100175.53;4469714;32;33826;-78
2023/12/03 07:18:10;;;;;;;12.35;8.88;;;;;;;-0.25;58.98;100176.31;4469708;32;34681;-79
2023/12/03 07:20:39;;;;;;;12.93;8.77;;;;;;;-0.23;58.88;100181.53;4469021;32;33469;-79
2023/12/03 07:23:10;;;;;;;11.23;8.30;;;;;;;-0.11;58.29;100181.25;4463563;32;32503;-79
2023/12/03 07:25:42;;;;;;;10.80;7.95;;;;;;;-0.37;59.28;100182.63;4484654;32;34186;-79
2023/12/03 07:28:11;;;;;;;13.07;8.90;;;;;;;-0.34;59.01;100182.59;4484944;32;34530;-78
2023/12/03 07:30:41;;;;;;;13.32;8.68;;;;;;;-0.27;59.08;100194.59;4485333;32;34693;-78
2023/12/03 07:33:11;;;;;;;18.30;14.95;;;;;;;-0.10;58.68;100198.59;4485772;32;34144;-79
2023/12/03 07:35:42;;;;;;;12.60;9.32;;;;;;;0.60;57.03;100191.81;4485346;32;34067;-79
2023/12/03 07:38:12;;;;;;;12.63;7.50;;;;;;;0.53;56.54;100208.50;4485192;32;34062;-79
2023/12/03 07:40:42;;;;;;;11.25;8.32;;;;;;;1.18;54.90;100220.81;4485499;32;34776;-79
2023/12/03 07:43:11;;;;;;;11.88;7.30;;;;;;;1.56;53.66;100225.03;4484848;32;33631;-79
2023/12/03 07:45:45;;;;;;;11.98;8.30;;;;;;;1.80;52.83;100231.31;4484815;32;33200;-79
2023/12/03 07:48:14;;;;;;;14.40;8.88;;;;;;;1.83;52.82;100238.22;4485413;32;34080;-79
2023/12/03 07:50:44;;;;;;;18.90;11.43;;;;;;;2.20;51.60;100246.72;4485256;32;34240;-79
2023/12/03 07:53:14;;;;;;;10.07;7.62;;;;;;;3.24;49.98;100246.94;4485104;32;33913;-79
2023/12/03 07:55:43;;;;;;;10.65;8.35;;;;;;;3.30;48.66;100252.00;4484645;32;33497;-79
2023/12/03 07:58:12;;;;;;;9.70;7.60;;;;;;;3.18;49.14;100241.03;4484930;32;34007;-79
2023/12/03 08:00:42;;;;;;;11.63;8.02;;;;;;;2.69;50.53;100252.22;4485100;32;34158;-79
2023/12/03 08:03:11;;;;;;;12.30;8.57;;;;;;;3.08;49.76;100236.13;4485199;32;33661;-79
2023/12/03 08:05:43;;;;;;;11.12;7.37;;;;;;;2.43;50.56;100240.81;4484668;32;33603;-79
2023/12/03 08:08:15;;;;;;;9.88;6.72;;;;;;;3.53;48.50;100246.81;4485365;32;34182;-79
2023/12/03 08:10:44;;;;;;;9.45;6.68;;;;;;;3.28;48.41;100244.16;4484720;32;35352;-79
2023/12/03 08:13:14;;;;;;;11.25;6.97;;;;;;;3.25;48.04;100246.91;4484630;32;33963;-79
2023/12/03 08:15:43;;;;;;;10.32;7.05;;;;;;;3.30;47.96;100241.53;4484075;32;33605;-79
2023/12/03 08:18:12;;;;;;;11.68;7.05;;;;;;;2.53;49.90;100241.38;4484958;32;33541;-79
2023/12/03 08:20:42;;;;;;;10.90;7.35;;;;;;;1.97;51.43;100260.44;4484179;32;34245;-79
2023/12/03 08:23:11;;;;;;;8.63;6.90;;;;;;;1.61;52.08;100261.47;4483931;32;33913;-79
2023/12/03 08:25:46;;;;;;;10.40;7.30;;;;;;;1.46;53.01;100268.78;4483594;32;33010;-79
2023/12/03 08:28:15;;;;;;;10.65;6.93;;;;;;;1.70;53.00;100269.94;4483422;32;35269;-79
2023/12/03 08:30:45;;;;;;;9.85;7.30;;;;;;;2.40;51.23;100274.87;4483507;32;34912;-79
2023/12/03 08:33:15;;;;;;;10.35;6.75;;;;;;;2.46;50.44;100269.50;4484762;32;33504;-80
2023/12/03 08:35:44;;;;;;;9.07;6.32;;;;;;;2.17;51.01;100269.47;4486286;32;33085;-80
2023/12/03 08:38:14;;;;;;;11.02;6.82;;;;;;;2.22;50.38;100285.91;4485699;32;33503;-79
2023/12/03 08:40:43;;;;;;;10.48;7.15;;;;;;;2.95;48.70;100280.19;4485453;32;33963;-79
2023/12/03 08:43:15;;;;;;;8.68;6.72;;;;;;;3.07;48.42;100273.69;4485038;32;33423;-79
2023/12/03 08:45:45;;;;;;;8.27;6.45;;;;;;;3.74;46.88;100288.91;4484611;31;33962;-79
2023/12/03 08:48:14;;;;;;;10.80;6.65;;;;;;;4.57;45.35;100271.84;4485001;32;33873;-79
2023/12/03 08:50:43;;;;;;;7.70;6.20;;;;;;;4.88;44.42;100265.38;4484534;32;34082;-79
2023/12/03 08:53:13;;;;;;;11.02;7.00;;;;;;;4.55;44.85;100260.53;4484269;32;34007;-78
2023/12/03 08:55:44;;;;;;;8.02;6.95;;;;;;;4.68;44.92;100261.78;4469637;32;31613;-78
2023/12/03 08:58:15;;;;;;;7.87;5.97;;;;;;;4.70;43.82;100301.09;4484125;32;33834;-78
2023/12/03 09:00:44;;;;;;;9.70;7.30;;;;;;;4.81;43.37;100308.56;4484112;32;34058;-78
2023/12/03 09:03:13;;;;;;;8.93;5.72;;;;;;;4.16;44.72;100331.13;4484450;32;34255;-78
2023/12/03 09:05:46;;;;;;;11.25;5.68;;;;;;;4.07;45.00;100332.28;4483746;32;33454;-78
2023/12/03 09:08:15;;;;;;;7.60;5.43;;;;;;;4.29;44.73;100321.03;4483931;32;33759;-78
2023/12/03 09:10:44;;;;;;;8.07;5.50;;;;;;;4.42;43.96;100322.28;4484068;32;34751;-78
2023/12/03 09:13:16;;;;;;;6.22;5.03;;;;;;;4.86;43.51;100317.94;4484072;32;33955;-78
2023/12/03 09:15:45;;;;;;;12.27;7.87;;;;;;;4.83;43.23;100322.44;4484046;32;33497;-78
2023/12/03 09:18:14;;;;;;;9.70;5.85;;;;;;;5.30;42.11;100317.09;4484650;32;34728;-78
2023/12/03 09:20:44;;;;;;;7.30;5.20;;;;;;;5.48;41.96;100315.50;4484951;32;35137;-78
2023/12/03 09:23:13;;;;;;;9.07;4.95;;;;;;;5.48;41.98;100320.75;4484094;32;34120;-78
2023/12/03 09:25:45;;;;;;;9.70;5.50;;;;;;;5.59;41.47;100324.63;4485178;31;33926;-78
2023/12/03 09:28:16;;;;;;;7.93;5.80;;;;;;;6.06;40.82;100331.44;4484392;32;34584;-78
2023/12/03 09:30:45;;;;;;;7.43;5.60;;;;;;;5.48;41.32;100340.00;4485020;32;34196;-78
2023/12/03 09:33:14;;;;;;;7.82;5.18;;;;;;;5.74;40.78;100338.03;4484935;32;35499;-78
2023/12/03 09:35:45;;;;;;;8.35;6.28;;;;;;;5.83;40.80;100349.03;4484433;32;34194;-78
2023/12/03 09:38:14;;;;;;;8.85;6.28;;;;;;;5.74;40.72;100343.28;4484244;32;33755;-78
2023/12/03 09:40:44;;;;;;;8.68;5.62;;;;;;;5.85;41.07;100341.91;4484443;32;34698;-78
2023/12/03 09:43:18;;;;;;;8.10;5.53;;;;;;;5.77;40.78;100340.53;4484418;32;33771;-78
2023/12/03 09:45:47;;;;;;;7.12;5.47;;;;;;;5.53;41.37;100345.06;4483915;32;33479;-78
2023/12/03 09:48:20;;;;;;;8.77;6.10;;;;;;;5.54;41.31;100339.72;4470325;32;33739;-78
2023/12/03 09:50:51;;;;;;;9.95;7.22;;;;;;;5.58;41.94;100332.56;4484436;32;33996;-78
2023/12/03 09:53:24;;;;;;;9.32;7.05;;;;;;;5.64;41.64;100338.44;4484213;32;34361;-78
2023/12/03 09:55:53;;;;;;;16.87;12.52;;;;;;;5.68;41.82;100361.03;4484091;32;33790;-78
2023/12/03 09:58:23;;;;;;;12.55;9.45;;;;;;;5.73;41.74;100366.09;4484315;32;35242;-78
2023/12/03 10:00:54;;;;;;;12.02;10.27;;;;;;;5.88;41.22;100359.34;4484400;32;33937;-78
2023/12/03 10:03:24;;;;;;;16.12;11.02;;;;;;;6.07;40.63;100349.78;4484564;32;34599;-78
2023/12/03 10:05:53;;;;;;;11.12;9.57;;;;;;;6.33;40.36;100338.09;4483792;32;34125;-78
2023/12/03 10:08:22;;;;;;;16.10;8.48;;;;;;;5.43;41.84;100344.59;4483966;32;33999;-78
2023/12/03 10:10:58;;;;;;;10.45;8.43;;;;;;;5.37;42.58;100336.94;4483689;32;34145;-78
2023/12/03 10:13:31;;;;;;;10.98;7.80;;;;;;;5.89;42.33;100347.91;4483887;32;33919;-77
2023/12/03 10:16:01;;;;;;;8.23;5.72;;;;;;;5.23;42.29;100347.19;4483727;32;33607;-77
2023/12/03 10:18:31;;;;;;;10.23;7.60;;;;;;;4.92;43.18;100354.47;4484303;32;35013;-78
2023/12/03 10:21:08;;;;;;;7.07;5.32;;;;;;;4.28;44.20;100362.16;4484016;32;33837;-78
2023/12/03 10:23:40;;;;;;;12.35;6.78;;;;;;;3.90;45.46;100359.09;4484217;32;34159;-78
2023/12/03 10:26:11;;;;;;;8.35;7.05;;;;;;;3.40;46.55;100368.63;4483851;32;33182;-78
2023/12/03 10:28:42;;;;;;;9.93;7.40;;;;;;;3.03;48.62;100372.41;4484112;32;33613;-78
2023/12/03 10:31:13;;;;;;;9.05;7.10;;;;;;;2.81;48.87;100373.97;4483968;32;34454;-78
2023/12/03 10:33:44;;;;;;;11.12;6.85;;;;;;;3.00;48.65;100371.66;4484197;32;33896;-78
2023/12/03 10:36:16;;;;;;;12.02;7.12;;;;;;;2.80;49.65;100380.97;4484028;32;35314;-78
2023/12/03 10:38:46;;;;;;;9.55;6.68;;;;;;;2.81;49.59;100376.56;4483447;32;34939;-78
2023/12/03 10:41:16;;;;;;;8.95;6.45;;;;;;;2.60;49.47;100367.62;4483973;32;33885;-78
2023/12/03 10:43:46;;;;;;;12.27;7.75;;;;;;;2.50;50.10;100351.34;4484099;32;34275;-77
2023/12/03 10:46:16;;;;;;;9.32;7.10;;;;;;;2.32;50.86;100364.94;4484081;32;33878;-78
2023/12/03 10:48:50;;;;;;;9.70;8.50;;;;;;;2.82;49.74;100339.06;4483929;32;34849;-78
2023/12/03 10:51:20;;;;;;;10.45;7.35;;;;;;;3.36;48.45;100340.81;4483994;32;33752;-78
2023/12/03 10:53:49;;;;;;;9.07;6.62;;;;;;;3.86;48.16;100340.91;4483555;32;33966;-77
2023/12/03 10:56:20;;;;;;;8.55;6.07;;;;;;;4.13;46.70;100350.44;4469001;32;32845;-77
2023/12/03 10:58:52;;;;;;;10.68;6.93;;;;;;;4.50;45.54;100362.19;4482665;32;34834;-77
2023/12/03 11:01:25;;;;;;;7.47;5.83;;;;;;;4.58;45.36;100365.41;4483640;32;34219;-78
2023/12/03 11:03:56;;;;;;;6.28;4.95;;;;;;;5.14;44.85;100372.00;4483534;32;34145;-78
2023/12/03 11:06:27;;;;;;;7.95;5.90;;;;;;;4.74;43.57;100373.56;4483807;32;33048;-78
2023/12/03 11:08:57;;;;;;;8.27;6.72;;;;;;;5.21;43.56;100385.78;4483349;32;34900;-78
2023/12/03 11:11:26;;;;;;;7.32;5.72;;;;;;;5.06;43.64;100381.97;4483920;32;33790;-78
2023/12/03 11:13:58;;;;;;;8.13;6.10;;;;;;;4.88;44.76;100383.53;4483637;32;34122;-78
2023/12/03 11:16:34;;;;;;;10.50;6.12;;;;;;;4.45;45.33;100379.87;4483672;32;33506;-78
2023/12/03 11:19:09;;;;;;;8.48;5.80;;;;;;;4.21;46.38;100391.28;4483838;32;34386;-78
2023/12/03 11:21:46;;;;;;;9.15;5.87;;;;;;;4.03;46.43;100388.34;4483780;32;34934;-77
2023/12/03 11:24:45;;;;;;;8.18;6.20;;;;;;;3.72;46.92;100391.16;4483899;32;34025;-77
2023/12/03 11:27:15;;;;;;;9.45;7.22;;;;;;;2.56;49.40;100394.75;4483391;32;48946;-77
2023/12/03 11:29:49;;;;;;;7.85;5.90;;;;;;;2.85;49.71;100394.78;4483150;32;34589;-77
2023/12/03 11:32:20;;;;;;;8.48;6.07;;;;;;;2.58;50.26;100406.06;4483559;32;34996;-77
2023/12/03 11:35:02;;;;;;;7.22;5.68;;;;;;;2.50;50.54;100411.50;4482878;32;35093;-78
2023/12/03 11:37:32;;;;;;;9.50;6.25;;;;;;;2.20;51.29;100416.66;4483402;32;33318;-78
2023/12/03 11:40:09;;;;;;;8.50;5.85;;;;;;;2.68;50.53;100423.19;4483173;32;33830;-78
2023/12/03 11:42:45;;;;;;;8.07;6.47;;;;;;;2.90;49.66;100431.28;4483372;32;33832;-77